createdAt,value
2017-04-25T00:00:12.699Z,38.00
2017-04-25T00:01:11.926Z,38.00
2017-04-25T00:02:11.645Z,37.90
2017-04-25T00:03:11.789Z,38.00
2017-04-25T00:04:11.818Z,38.00
2017-04-25T00:05:11.910Z,38.00
2017-04-25T00:06:12.000Z,38.00
2017-04-25T00:07:11.828Z,38.10
2017-04-25T00:08:12.052Z,38.00
2017-04-25T00:09:13.885Z,38.10
2017-04-25T00:10:12.010Z,38.00
2017-04-25T00:11:13.019Z,38.10
2017-04-25T00:12:13.762Z,37.50
2017-04-25T00:13:13.169Z,38.10
2017-04-25T00:14:12.141Z,38.10
2017-04-25T00:15:14.365Z,38.20
2017-04-25T00:16:10.152Z,is
2017-04-25T00:17:14.090Z,38.10
2017-04-25T00:18:12.633Z,38.10
2017-04-25T00:19:11.842Z,38.10
2017-04-25T00:20:12.660Z,38.20
2017-04-25T00:21:12.349Z,38.20
2017-04-25T00:22:12.418Z,38.20
2017-04-25T00:23:11.613Z,38.30
2017-04-25T00:24:11.813Z,38.20
2017-04-25T00:25:13.011Z,38.30
2017-04-25T00:26:13.863Z,38.40
2017-04-25T00:27:12.671Z,38.30
2017-04-25T00:28:11.919Z,38.20
2017-04-25T00:29:12.078Z,38.20
2017-04-25T00:30:13.789Z,38.40
2017-04-25T00:31:10.675Z,is
2017-04-25T00:32:13.950Z,38.40
2017-04-25T00:33:13.514Z,38.40
2017-04-25T00:34:11.569Z,38.40
2017-04-25T00:35:12.382Z,38.40
2017-04-25T00:36:13.296Z,38.60
2017-04-25T00:37:12.375Z,38.60
2017-04-25T00:38:12.028Z,38.60
2017-04-25T00:39:13.002Z,38.70
2017-04-25T00:40:12.641Z,38.70
2017-04-25T00:41:11.791Z,38.60
2017-04-25T00:42:13.613Z,38.70
2017-04-25T00:43:12.382Z,38.80
2017-04-25T00:44:11.930Z,38.90
2017-04-25T00:45:12.511Z,38.90
2017-04-25T00:46:09.883Z,is
2017-04-25T00:47:13.428Z,38.90
2017-04-25T00:48:12.029Z,39.00
2017-04-25T00:49:12.236Z,38.40
2017-04-25T00:50:12.220Z,39.00
2017-04-25T00:51:10.140Z,is
2017-04-25T00:52:13.262Z,38.20
2017-04-25T00:53:13.027Z,39.00
2017-04-25T00:54:12.471Z,39.10
2017-04-25T00:55:12.754Z,39.00
2017-04-25T00:56:11.871Z,39.00
2017-04-25T00:57:11.855Z,39.10
2017-04-25T00:58:09.796Z,is
2017-04-25T00:59:12.619Z,39.10
2017-04-25T01:00:13.850Z,39.20
2017-04-25T01:01:12.405Z,39.10
2017-04-25T01:02:12.968Z,39.20
2017-04-25T01:03:12.993Z,39.20
2017-04-25T01:04:13.647Z,39.20
2017-04-25T01:05:12.453Z,39.30
2017-04-25T01:06:12.418Z,39.30
2017-04-25T01:07:12.272Z,39.30
2017-04-25T01:08:13.072Z,39.20
2017-04-25T01:09:12.989Z,39.20
2017-04-25T01:10:12.249Z,39.30
2017-04-25T01:11:10.202Z,is
2017-04-25T01:12:11.764Z,39.20
2017-04-25T01:13:12.538Z,39.30
2017-04-25T01:14:13.542Z,39.40
2017-04-25T01:15:12.996Z,39.50
2017-04-25T01:16:12.240Z,39.50
2017-04-25T01:17:14.080Z,39.40
2017-04-25T01:18:12.235Z,39.40
2017-04-25T01:19:12.710Z,38.70
2017-04-25T01:20:14.538Z,39.60
2017-04-25T01:21:11.569Z,39.40
2017-04-25T01:22:11.718Z,39.50
2017-04-25T01:23:12.443Z,39.50
2017-04-25T01:24:12.247Z,39.60
2017-04-25T01:25:13.815Z,39.60
2017-04-25T01:26:13.256Z,39.50
2017-04-25T01:27:12.784Z,39.40
2017-04-25T01:28:12.500Z,39.40
2017-04-25T01:29:11.506Z,39.50
2017-04-25T01:30:11.679Z,39.60
2017-04-25T01:31:11.626Z,39.50
2017-04-25T01:32:13.186Z,39.70
2017-04-25T01:33:13.388Z,39.70
2017-04-25T01:34:12.234Z,39.70
2017-04-25T01:35:11.145Z,is
2017-04-25T01:36:13.587Z,39.70
2017-04-25T01:37:13.090Z,39.60
2017-04-25T01:38:12.948Z,39.60
2017-04-25T01:39:13.596Z,39.70
2017-04-25T01:40:12.731Z,39.70
2017-04-25T01:41:14.439Z,39.60
2017-04-25T01:42:09.964Z,is
2017-04-25T01:43:14.412Z,39.70
2017-04-25T01:44:12.578Z,39.70
2017-04-25T01:45:12.382Z,39.70
2017-04-25T01:46:14.078Z,39.60
2017-04-25T01:47:14.227Z,39.70
2017-04-25T01:48:11.150Z,is
2017-04-25T01:49:13.538Z,39.70
2017-04-25T01:50:13.568Z,39.70
2017-04-25T01:51:12.723Z,39.60
2017-04-25T01:52:13.888Z,39.70
2017-04-25T01:53:12.604Z,39.60
2017-04-25T01:54:12.409Z,39.60
2017-04-25T01:55:12.242Z,39.60
2017-04-25T01:56:12.547Z,39.60
2017-04-25T01:57:11.540Z,39.60
2017-04-25T01:58:11.821Z,39.60
2017-04-25T01:59:12.619Z,39.70
2017-04-25T02:00:11.711Z,39.50
2017-04-25T02:01:11.686Z,39.60
2017-04-25T02:02:13.756Z,39.70
2017-04-25T02:03:11.966Z,39.60
2017-04-25T02:04:13.140Z,39.60
2017-04-25T02:05:13.254Z,39.70
2017-04-25T02:06:12.522Z,39.60
2017-04-25T02:07:10.749Z,is
2017-04-25T02:08:12.643Z,39.60
2017-04-25T02:09:12.235Z,39.60
2017-04-25T02:10:12.989Z,39.60
2017-04-25T02:11:12.897Z,39.60
2017-04-25T02:12:12.778Z,39.70
2017-04-25T02:13:13.285Z,39.70
2017-04-25T02:14:10.201Z,is
2017-04-25T02:15:12.420Z,39.70
2017-04-25T02:16:11.475Z,39.60
2017-04-25T02:17:11.822Z,39.60
2017-04-25T02:18:11.909Z,39.70
2017-04-25T02:19:12.860Z,39.70
2017-04-25T02:20:12.440Z,39.60
2017-04-25T02:21:13.234Z,39.60
2017-04-25T02:22:13.783Z,39.70
2017-04-25T02:23:10.323Z,is
2017-04-25T02:24:12.537Z,39.60
2017-04-25T02:25:11.557Z,39.60
2017-04-25T02:26:12.037Z,39.50
2017-04-25T02:27:09.670Z,is
2017-04-25T02:28:12.081Z,39.60
2017-04-25T02:29:12.922Z,39.60
2017-04-25T02:30:10.265Z,is
2017-04-25T02:31:12.975Z,39.70
2017-04-25T02:32:12.238Z,39.50
2017-04-25T02:33:13.160Z,39.60
2017-04-25T02:34:12.276Z,39.60
2017-04-25T02:35:13.254Z,39.60
2017-04-25T02:36:12.500Z,39.60
2017-04-25T02:37:13.077Z,39.10
2017-04-25T02:38:13.059Z,39.70
2017-04-25T02:39:13.007Z,39.60
2017-04-25T02:40:12.553Z,39.70
2017-04-25T02:41:09.649Z,is
2017-04-25T02:42:12.592Z,39.60
2017-04-25T02:43:11.622Z,39.60
2017-04-25T02:44:12.478Z,39.60
2017-04-25T02:45:12.235Z,39.60
2017-04-25T02:46:12.244Z,39.60
2017-04-25T02:47:13.881Z,39.70
2017-04-25T02:48:11.888Z,39.50
2017-04-25T02:49:13.426Z,39.70
2017-04-25T02:50:12.568Z,39.70
2017-04-25T02:51:12.262Z,39.70
2017-04-25T02:52:13.942Z,39.70
2017-04-25T02:53:12.612Z,39.60
2017-04-25T02:54:12.406Z,39.60
2017-04-25T02:55:11.352Z,39.60
2017-04-25T02:56:11.941Z,39.60
2017-04-25T02:57:11.986Z,39.60
2017-04-25T02:58:12.653Z,39.70
2017-04-25T02:59:12.430Z,39.60
2017-04-25T03:00:12.400Z,39.60
2017-04-25T03:01:13.375Z,39.60
2017-04-25T03:02:12.448Z,39.60
2017-04-25T03:03:11.509Z,39.60
2017-04-25T03:04:13.136Z,39.60
2017-04-25T03:05:12.251Z,39.60
2017-04-25T03:06:13.126Z,39.70
2017-04-25T03:07:12.256Z,39.60
2017-04-25T03:08:12.332Z,39.60
2017-04-25T03:09:10.837Z,is
2017-04-25T03:10:12.448Z,39.60
2017-04-25T03:11:14.427Z,39.60
2017-04-25T03:12:11.839Z,39.60
2017-04-25T03:13:14.552Z,39.60
2017-04-25T03:14:11.893Z,39.60
2017-04-25T03:15:12.938Z,39.70
2017-04-25T03:16:12.909Z,39.70
2017-04-25T03:17:13.793Z,39.60
2017-04-25T03:18:12.653Z,39.60
2017-04-25T03:19:12.518Z,39.60
2017-04-25T03:20:12.864Z,39.60
2017-04-25T03:21:12.789Z,39.70
2017-04-25T03:22:13.769Z,39.80
2017-04-25T03:23:12.720Z,39.80
2017-04-25T03:24:12.763Z,39.90
2017-04-25T03:25:12.236Z,39.80
2017-04-25T03:26:11.742Z,39.80
2017-04-25T03:27:12.907Z,39.80
2017-04-25T03:28:12.408Z,39.70
2017-04-25T03:29:12.553Z,39.90
2017-04-25T03:30:13.401Z,39.80
2017-04-25T03:31:12.455Z,39.80
2017-04-25T03:32:11.636Z,39.80
2017-04-25T03:33:12.223Z,39.80
2017-04-25T03:34:13.325Z,39.90
2017-04-25T03:35:12.389Z,39.80
2017-04-25T03:36:11.439Z,39.90
2017-04-25T03:37:10.135Z,is
2017-04-25T03:38:11.450Z,39.90
2017-04-25T03:39:11.896Z,39.90
2017-04-25T03:40:11.902Z,39.90
2017-04-25T03:41:14.553Z,40.10
2017-04-25T03:42:12.598Z,40.00
2017-04-25T03:43:12.000Z,40.00
2017-04-25T03:44:12.980Z,40.10
2017-04-25T03:45:14.309Z,40.10
2017-04-25T03:46:12.914Z,40.10
2017-04-25T03:47:13.877Z,40.20
2017-04-25T03:48:12.001Z,40.00
2017-04-25T03:49:13.793Z,40.20
2017-04-25T03:50:11.710Z,40.10
2017-04-25T03:51:12.499Z,40.20
2017-04-25T03:52:12.161Z,40.20
2017-04-25T03:53:12.412Z,40.10
2017-04-25T03:54:12.025Z,40.20
2017-04-25T03:55:13.060Z,40.20
2017-04-25T03:56:14.695Z,40.30
2017-04-25T03:57:10.574Z,is
2017-04-25T03:58:11.951Z,40.20
2017-04-25T03:59:12.041Z,40.20
2017-04-25T04:00:12.050Z,40.20
2017-04-25T04:01:11.994Z,40.30
2017-04-25T04:02:12.696Z,40.40
2017-04-25T04:03:11.742Z,40.40
2017-04-25T04:04:12.936Z,40.40
2017-04-25T04:05:13.320Z,40.50
2017-04-25T04:06:10.861Z,is
2017-04-25T04:07:11.906Z,40.30
2017-04-25T04:08:12.601Z,40.40
2017-04-25T04:09:11.669Z,40.40
2017-04-25T04:10:11.801Z,40.40
2017-04-25T04:11:13.098Z,40.40
2017-04-25T04:12:12.373Z,40.40
2017-04-25T04:13:09.554Z,is
2017-04-25T04:14:12.118Z,40.30
2017-04-25T04:15:12.238Z,40.40
2017-04-25T04:16:13.340Z,40.40
2017-04-25T04:17:13.541Z,40.50
2017-04-25T04:18:12.033Z,40.40
2017-04-25T04:19:12.062Z,40.30
2017-04-25T04:20:12.860Z,40.40
2017-04-25T04:21:11.829Z,40.30
2017-04-25T04:22:11.903Z,40.30
2017-04-25T04:23:11.923Z,40.40
2017-04-25T04:24:12.305Z,40.40
2017-04-25T04:25:13.894Z,is
2017-04-25T04:26:13.684Z,40.50
2017-04-25T04:27:11.756Z,40.40
2017-04-25T04:28:11.781Z,40.40
2017-04-25T04:29:13.016Z,40.40
2017-04-25T04:30:12.298Z,40.50
2017-04-25T04:31:12.478Z,40.40
2017-04-25T04:32:12.933Z,40.50
2017-04-25T04:33:11.873Z,40.10
2017-04-25T04:34:13.417Z,40.50
2017-04-25T04:35:11.456Z,40.40
2017-04-25T04:36:11.728Z,40.50
2017-04-25T04:37:13.093Z,40.50
2017-04-25T04:38:12.689Z,40.50
2017-04-25T04:39:11.663Z,40.50
2017-04-25T04:40:12.832Z,40.60
2017-04-25T04:41:12.176Z,40.50
2017-04-25T04:42:12.850Z,40.60
2017-04-25T04:43:12.661Z,40.60
2017-04-25T04:44:10.378Z,is
2017-04-25T04:45:12.497Z,40.50
2017-04-25T04:46:17.497Z,40.50
2017-04-25T04:47:11.575Z,40.40
2017-04-25T04:48:13.663Z,40.40
2017-04-25T04:49:12.235Z,40.50
2017-04-25T04:50:13.848Z,40.50
2017-04-25T04:51:11.886Z,40.50
2017-04-25T04:52:12.830Z,40.50
2017-04-25T04:53:10.469Z,is
2017-04-25T04:54:13.188Z,40.50
2017-04-25T04:55:11.594Z,40.70
2017-04-25T04:56:11.739Z,40.50
2017-04-25T04:57:12.563Z,40.60
2017-04-25T04:58:12.383Z,40.60
2017-04-25T04:59:10.470Z,is
2017-04-25T05:00:12.427Z,40.60
2017-04-25T05:01:12.117Z,40.50
2017-04-25T05:02:12.253Z,40.50
2017-04-25T05:03:12.732Z,40.40
2017-04-25T05:04:10.610Z,is
2017-04-25T05:05:11.899Z,is
2017-04-25T05:06:11.486Z,40.40
2017-04-25T05:07:11.944Z,40.40
2017-04-25T05:08:12.651Z,40.50
2017-04-25T05:09:12.416Z,40.50
2017-04-25T05:10:10.384Z,is
2017-04-25T05:11:12.685Z,40.60
2017-04-25T05:12:12.403Z,40.70
2017-04-25T05:13:11.413Z,40.40
2017-04-25T05:14:12.235Z,40.50
2017-04-25T05:15:13.070Z,40.50
2017-04-25T05:16:12.746Z,40.60
2017-04-25T05:17:12.633Z,40.50
2017-04-25T05:18:11.778Z,40.50
2017-04-25T05:19:12.232Z,40.50
2017-04-25T05:20:13.867Z,40.60
2017-04-25T05:21:11.929Z,40.50
2017-04-25T05:22:13.291Z,40.50
2017-04-25T05:23:12.976Z,40.60
2017-04-25T05:24:12.191Z,40.40
2017-04-25T05:25:12.245Z,40.50
2017-04-25T05:26:14.122Z,40.60
2017-04-25T05:27:12.634Z,40.70
2017-04-25T05:28:12.278Z,40.60
2017-04-25T05:29:13.581Z,40.60
2017-04-25T05:30:11.688Z,40.50
2017-04-25T05:31:12.434Z,40.50
2017-04-25T05:32:11.519Z,40.60
2017-04-25T05:33:12.057Z,40.50
2017-04-25T05:34:12.233Z,40.50
2017-04-25T05:35:13.800Z,40.70
2017-04-25T05:36:13.614Z,40.60
2017-04-25T05:37:11.505Z,40.50
2017-04-25T05:38:12.228Z,40.70
2017-04-25T05:39:12.634Z,40.60
2017-04-25T05:40:12.389Z,40.60
2017-04-25T05:41:10.351Z,is
2017-04-25T05:42:10.313Z,is
2017-04-25T05:43:12.349Z,40.60
2017-04-25T05:44:13.091Z,40.60
2017-04-25T05:45:13.713Z,40.60
2017-04-25T05:46:11.924Z,40.50
2017-04-25T05:47:12.703Z,40.60
2017-04-25T05:48:11.871Z,40.50
2017-04-25T05:49:12.413Z,40.50
2017-04-25T05:50:11.392Z,40.20
2017-04-25T05:51:13.249Z,40.70
2017-04-25T05:52:12.850Z,40.50
2017-04-25T05:53:12.232Z,40.50
2017-04-25T05:54:12.887Z,40.60
2017-04-25T05:55:11.834Z,40.50
2017-04-25T05:56:10.630Z,is
2017-04-25T05:57:11.993Z,40.50
2017-04-25T05:58:12.240Z,40.50
2017-04-25T05:59:12.722Z,40.60
2017-04-25T06:00:11.735Z,40.60
2017-04-25T06:01:12.427Z,40.70
2017-04-25T06:02:12.133Z,40.50
2017-04-25T06:03:12.945Z,40.70
2017-04-25T06:04:12.071Z,40.60
2017-04-25T06:05:12.183Z,40.70
2017-04-25T06:06:12.490Z,40.60
2017-04-25T06:07:12.706Z,40.60
2017-04-25T06:08:12.384Z,40.70
2017-04-25T06:09:14.302Z,40.70
2017-04-25T06:10:12.342Z,40.60
2017-04-25T06:11:12.232Z,40.60
2017-04-25T06:12:12.270Z,40.60
2017-04-25T06:13:12.498Z,40.70
2017-04-25T06:14:12.042Z,40.60
2017-04-25T06:15:12.651Z,40.70
2017-04-25T06:16:12.332Z,40.70
2017-04-25T06:17:12.924Z,40.70
2017-04-25T06:18:13.261Z,40.70
2017-04-25T06:19:13.379Z,40.70
2017-04-25T06:20:11.000Z,is
2017-04-25T06:21:12.649Z,40.60
2017-04-25T06:22:11.816Z,40.70
2017-04-25T06:23:12.424Z,40.60
2017-04-25T06:24:13.399Z,40.70
2017-04-25T06:25:11.562Z,40.60
2017-04-25T06:26:11.799Z,40.70
2017-04-25T06:27:11.885Z,40.70
2017-04-25T06:28:12.814Z,40.80
2017-04-25T06:29:12.079Z,40.70
2017-04-25T06:30:12.049Z,40.70
2017-04-25T06:31:12.079Z,40.70
2017-04-25T06:32:12.006Z,40.80
2017-04-25T06:33:12.848Z,40.80
2017-04-25T06:34:12.890Z,41.00
2017-04-25T06:35:11.847Z,40.70
2017-04-25T06:36:12.648Z,40.80
2017-04-25T06:37:11.644Z,40.90
2017-04-25T06:38:12.691Z,40.90
2017-04-25T06:39:12.421Z,41.30
2017-04-25T06:40:09.926Z,is
2017-04-25T06:41:11.422Z,40.80
2017-04-25T06:42:11.852Z,40.80
2017-04-25T06:43:12.484Z,41.00
2017-04-25T06:44:11.564Z,40.90
2017-04-25T06:45:12.317Z,40.80
2017-04-25T06:46:13.077Z,41.00
2017-04-25T06:47:12.959Z,40.80
2017-04-25T06:48:11.964Z,40.90
2017-04-25T06:49:12.715Z,41.00
2017-04-25T06:50:10.348Z,is
2017-04-25T06:51:11.945Z,40.90
2017-04-25T06:52:10.533Z,is
2017-04-25T06:53:10.362Z,is
2017-04-25T06:54:12.427Z,41.40
2017-04-25T06:55:13.308Z,41.10
2017-04-25T06:56:12.663Z,41.00
2017-04-25T06:57:12.445Z,41.00
2017-04-25T06:58:13.269Z,41.00
2017-04-25T06:59:11.013Z,is
2017-04-25T07:00:11.465Z,40.90
2017-04-25T07:01:11.667Z,40.90
2017-04-25T07:02:12.328Z,40.90
2017-04-25T07:03:12.822Z,41.00
2017-04-25T07:04:12.701Z,41.00
2017-04-25T07:05:11.638Z,40.90
2017-04-25T07:06:12.433Z,41.10
2017-04-25T07:07:11.509Z,40.80
2017-04-25T07:08:11.600Z,41.00
2017-04-25T07:09:10.593Z,is
2017-04-25T07:10:13.000Z,41.00
2017-04-25T07:11:13.159Z,40.80
2017-04-25T07:12:12.622Z,40.70
2017-04-25T07:13:12.545Z,40.90
2017-04-25T07:14:12.253Z,40.80
2017-04-25T07:15:13.759Z,40.90
2017-04-25T07:16:13.398Z,40.70
2017-04-25T07:17:13.332Z,40.80
2017-04-25T07:18:13.865Z,40.70
2017-04-25T07:19:12.653Z,40.70
2017-04-25T07:20:12.294Z,40.70
2017-04-25T07:21:12.733Z,40.70
2017-04-25T07:22:11.730Z,40.60
2017-04-25T07:23:12.709Z,40.70
2017-04-25T07:24:12.229Z,40.60
2017-04-25T07:25:12.777Z,40.60
2017-04-25T07:26:10.645Z,is
2017-04-25T07:27:11.929Z,40.60
2017-04-25T07:28:12.448Z,40.60
2017-04-25T07:29:11.554Z,40.60
2017-04-25T07:30:14.504Z,40.80
2017-04-25T07:31:11.993Z,40.80
2017-04-25T07:32:15.030Z,40.70
2017-04-25T07:33:12.832Z,40.60
2017-04-25T07:34:11.881Z,40.50
2017-04-25T07:35:14.020Z,40.70
2017-04-25T07:36:12.218Z,40.70
2017-04-25T07:37:12.247Z,40.50
2017-04-25T07:38:13.005Z,40.60
2017-04-25T07:39:11.959Z,40.40
2017-04-25T07:40:12.903Z,40.50
2017-04-25T07:41:13.822Z,40.40
2017-04-25T07:42:12.510Z,40.40
2017-04-25T07:43:11.323Z,40.30
2017-04-25T07:44:12.409Z,40.30
2017-04-25T07:45:14.159Z,40.30
2017-04-25T07:46:12.809Z,40.40
2017-04-25T07:47:11.861Z,40.20
2017-04-25T07:48:12.789Z,40.40
2017-04-25T07:49:12.440Z,40.40
2017-04-25T07:50:12.405Z,40.30
2017-04-25T07:51:11.453Z,40.20
2017-04-25T07:52:11.992Z,40.30
2017-04-25T07:53:12.661Z,40.30
2017-04-25T07:54:12.537Z,40.20
2017-04-25T07:55:12.397Z,40.30
2017-04-25T07:56:12.367Z,40.20
2017-04-25T07:57:12.452Z,40.20
2017-04-25T07:58:11.856Z,40.10
2017-04-25T07:59:11.839Z,40.10
2017-04-25T08:00:10.578Z,is
2017-04-25T08:01:13.538Z,40.10
2017-04-25T08:02:09.840Z,is
2017-04-25T08:03:13.805Z,40.20
2017-04-25T08:04:12.369Z,40.20
2017-04-25T08:05:10.181Z,is
2017-04-25T08:06:12.642Z,40.20
2017-04-25T08:07:11.551Z,40.40
2017-04-25T08:08:11.602Z,40.30
2017-04-25T08:09:11.750Z,40.50
2017-04-25T08:10:12.454Z,40.40
2017-04-25T08:11:09.890Z,is
2017-04-25T08:12:12.409Z,40.50
2017-04-25T08:13:12.240Z,40.70
2017-04-25T08:14:12.424Z,40.70
2017-04-25T08:15:12.908Z,41.00
2017-04-25T08:16:12.474Z,42.30
2017-04-25T08:17:09.640Z,is
2017-04-25T08:18:13.691Z,43.50
2017-04-25T08:19:11.711Z,43.00
2017-04-25T08:20:13.329Z,43.00
2017-04-25T08:21:12.660Z,43.20
2017-04-25T08:22:11.707Z,43.60
2017-04-25T08:23:11.876Z,43.40
2017-04-25T08:24:13.728Z,43.70
2017-04-25T08:25:11.844Z,43.30
2017-04-25T08:26:13.721Z,43.50
2017-04-25T08:27:12.409Z,43.50
2017-04-25T08:28:12.065Z,43.30
2017-04-25T08:29:12.222Z,43.20
2017-04-25T08:30:13.058Z,43.50
2017-04-25T08:31:13.985Z,43.50
2017-04-25T08:32:12.929Z,43.20
2017-04-25T08:33:12.981Z,43.20
2017-04-25T08:34:12.951Z,43.30
2017-04-25T08:35:12.143Z,43.20
2017-04-25T08:36:13.730Z,43.20
2017-04-25T08:37:12.557Z,43.20
2017-04-25T08:38:12.449Z,43.50
2017-04-25T08:39:12.871Z,43.20
2017-04-25T08:40:11.880Z,43.30
2017-04-25T08:41:13.985Z,43.10
2017-04-25T08:42:11.955Z,43.20
2017-04-25T08:43:12.857Z,43.10
2017-04-25T08:44:13.632Z,43.00
2017-04-25T08:45:09.876Z,is
2017-04-25T08:46:12.657Z,43.20
2017-04-25T08:47:12.885Z,42.30
2017-04-25T08:48:11.915Z,43.10
2017-04-25T08:49:12.116Z,43.10
2017-04-25T08:50:12.234Z,43.00
2017-04-25T08:51:13.930Z,43.20
2017-04-25T08:52:12.407Z,43.10
2017-04-25T08:53:12.069Z,43.20
2017-04-25T08:54:11.962Z,43.10
2017-04-25T08:55:12.109Z,43.20
2017-04-25T08:56:12.932Z,43.40
2017-04-25T08:57:12.874Z,43.20
2017-04-25T08:58:11.966Z,43.20
2017-04-25T08:59:12.127Z,43.60
2017-04-25T09:00:13.770Z,43.30
2017-04-25T09:01:11.975Z,43.20
2017-04-25T09:02:15.527Z,43.20
2017-04-25T09:03:12.339Z,43.20
2017-04-25T09:04:13.354Z,43.20
2017-04-25T09:05:12.274Z,43.10
2017-04-25T09:06:12.378Z,43.10
2017-04-25T09:07:14.371Z,43.10
2017-04-25T09:08:11.455Z,43.20
2017-04-25T09:09:12.205Z,43.20
2017-04-25T09:10:11.183Z,is
2017-04-25T09:11:13.100Z,42.90
2017-04-25T09:12:10.564Z,is
2017-04-25T09:13:13.230Z,42.90
2017-04-25T09:14:12.236Z,42.90
2017-04-25T09:15:12.368Z,42.80
2017-04-25T09:16:12.434Z,42.70
2017-04-25T09:17:12.429Z,42.70
2017-04-25T09:18:11.930Z,42.70
2017-04-25T09:19:13.787Z,42.80
2017-04-25T09:20:11.796Z,42.70
2017-04-25T09:21:13.181Z,42.70
2017-04-25T09:22:12.353Z,42.60
2017-04-25T09:23:11.048Z,is
2017-04-25T09:24:10.213Z,is
2017-04-25T09:25:13.251Z,42.60
2017-04-25T09:26:12.290Z,42.40
2017-04-25T09:27:12.757Z,42.60
2017-04-25T09:28:12.430Z,42.60
2017-04-25T09:29:12.026Z,42.60
2017-04-25T09:30:18.879Z,42.60
2017-04-25T09:31:13.874Z,42.50
2017-04-25T09:32:13.767Z,42.30
2017-04-25T09:33:12.477Z,42.40
2017-04-25T09:34:14.313Z,42.40
2017-04-25T09:35:12.017Z,42.20
2017-04-25T09:36:12.969Z,42.40
2017-04-25T09:37:12.676Z,42.20
2017-04-25T09:38:15.411Z,42.20
2017-04-25T09:39:12.234Z,42.20
2017-04-25T09:40:13.782Z,42.10
2017-04-25T09:41:12.434Z,42.00
2017-04-25T09:42:12.167Z,41.90
2017-04-25T09:43:10.038Z,is
2017-04-25T09:44:09.536Z,is
2017-04-25T09:45:12.811Z,41.60
2017-04-25T09:46:12.289Z,41.40
2017-04-25T09:47:12.436Z,41.40
2017-04-25T09:48:11.503Z,41.30
2017-04-25T09:49:11.656Z,41.20
2017-04-25T09:50:13.505Z,41.20
2017-04-25T09:51:12.165Z,41.10
2017-04-25T09:52:13.294Z,40.70
2017-04-25T09:53:12.885Z,40.80
2017-04-25T09:54:12.717Z,40.90
2017-04-25T09:55:10.488Z,is
2017-04-25T09:56:12.418Z,40.90
2017-04-25T09:57:12.022Z,40.70
2017-04-25T09:58:12.707Z,40.90
2017-04-25T09:59:10.323Z,is
2017-04-25T10:00:11.831Z,40.50
2017-04-25T10:01:11.959Z,40.40
2017-04-25T10:02:12.619Z,40.50
2017-04-25T10:03:10.559Z,is
2017-04-25T10:04:12.444Z,40.50
2017-04-25T10:05:12.124Z,40.70
2017-04-25T10:06:13.018Z,41.00
2017-04-25T10:07:12.022Z,40.90
2017-04-25T10:08:12.252Z,40.90
2017-04-25T10:09:13.167Z,41.00
2017-04-25T10:10:12.633Z,40.90
2017-04-25T10:11:10.378Z,is
2017-04-25T10:12:10.524Z,is
2017-04-25T10:13:12.407Z,41.00
2017-04-25T10:14:11.865Z,40.90
2017-04-25T10:15:13.517Z,40.70
2017-04-25T10:16:12.199Z,40.90
2017-04-25T10:17:12.958Z,40.70
2017-04-25T10:18:11.987Z,40.90
2017-04-25T10:19:14.607Z,40.40
2017-04-25T10:20:12.207Z,40.60
2017-04-25T10:21:14.091Z,40.50
2017-04-25T10:22:12.643Z,40.30
2017-04-25T10:23:11.733Z,40.20
2017-04-25T10:24:13.548Z,40.30
2017-04-25T10:25:08.954Z,is
2017-04-25T10:26:12.423Z,40.20
2017-04-25T10:27:13.295Z,40.20
2017-04-25T10:28:12.496Z,40.00
2017-04-25T10:29:11.609Z,40.00
2017-04-25T10:30:11.646Z,40.00
2017-04-25T10:31:08.889Z,is
2017-04-25T10:32:12.609Z,39.90
2017-04-25T10:33:11.894Z,39.80
2017-04-25T10:34:13.573Z,39.50
2017-04-25T10:35:12.225Z,39.60
2017-04-25T10:36:12.424Z,40.00
2017-04-25T10:37:11.462Z,39.90
2017-04-25T10:38:12.232Z,40.00
2017-04-25T10:39:13.214Z,39.90
2017-04-25T10:40:12.349Z,39.50
2017-04-25T10:41:12.938Z,39.10
2017-04-25T10:42:12.275Z,38.90
2017-04-25T10:43:12.590Z,39.00
2017-04-25T10:44:12.404Z,39.00
2017-04-25T10:45:12.231Z,38.90
2017-04-25T10:46:12.699Z,39.70
2017-04-25T10:47:12.626Z,39.20
2017-04-25T10:48:11.869Z,39.40
2017-04-25T10:49:11.920Z,39.40
2017-04-25T10:50:12.069Z,39.20
2017-04-25T10:51:12.536Z,39.20
2017-04-25T10:52:11.627Z,39.30
2017-04-25T10:53:12.560Z,39.50
2017-04-25T10:54:11.587Z,39.50
2017-04-25T10:55:11.809Z,39.30
2017-04-25T10:56:11.952Z,39.30
2017-04-25T10:57:12.652Z,39.50
2017-04-25T10:58:12.252Z,39.30
2017-04-25T10:59:13.178Z,39.20
2017-04-25T11:00:13.735Z,39.00
2017-04-25T11:01:12.428Z,39.10
2017-04-25T11:02:11.893Z,39.20
2017-04-25T11:03:13.654Z,39.20
2017-04-25T11:04:13.580Z,39.20
2017-04-25T11:05:13.146Z,39.30
2017-04-25T11:06:10.971Z,is
2017-04-25T11:07:12.647Z,39.40
2017-04-25T11:08:11.748Z,39.40
2017-04-25T11:09:13.521Z,39.50
2017-04-25T11:10:10.402Z,is
2017-04-25T11:11:13.383Z,39.60
2017-04-25T11:12:12.120Z,39.70
2017-04-25T11:13:12.091Z,39.80
2017-04-25T11:14:12.505Z,39.90
2017-04-25T11:15:11.681Z,39.90
2017-04-25T11:16:12.056Z,39.70
2017-04-25T11:17:09.564Z,is
2017-04-25T11:18:12.638Z,40.20
2017-04-25T11:19:12.529Z,40.30
2017-04-25T11:20:12.703Z,40.50
2017-04-25T11:21:12.170Z,40.50
2017-04-25T11:22:13.439Z,40.80
2017-04-25T11:23:13.276Z,40.70
2017-04-25T11:24:12.324Z,40.70
2017-04-25T11:25:12.979Z,40.60
2017-04-25T11:26:12.910Z,40.70
2017-04-25T11:27:10.375Z,is
2017-04-25T11:28:12.405Z,40.60
2017-04-25T11:29:13.088Z,40.50
2017-04-25T11:30:12.725Z,40.50
2017-04-25T11:31:13.552Z,40.60
2017-04-25T11:32:13.363Z,40.50
2017-04-25T11:33:14.199Z,40.50
2017-04-25T11:34:10.676Z,is
2017-04-25T11:35:12.387Z,40.40
2017-04-25T11:36:11.958Z,40.40
2017-04-25T11:37:13.840Z,40.50
2017-04-25T11:38:12.436Z,40.60
2017-04-25T11:39:11.945Z,40.50
2017-04-25T11:40:10.963Z,is
2017-04-25T11:41:12.358Z,40.70
2017-04-25T11:42:11.416Z,40.70
2017-04-25T11:43:11.383Z,40.70
2017-04-25T11:44:13.020Z,40.80
2017-04-25T11:45:12.076Z,40.80
2017-04-25T11:46:11.958Z,40.80
2017-04-25T11:47:13.554Z,40.90
2017-04-25T11:48:12.281Z,41.00
2017-04-25T11:49:15.845Z,41.00
2017-04-25T11:50:11.877Z,40.90
2017-04-25T11:51:12.481Z,41.00
2017-04-25T11:52:12.168Z,41.00
2017-04-25T11:53:13.085Z,41.20
2017-04-25T11:54:11.964Z,41.00
2017-04-25T11:55:12.781Z,41.10
2017-04-25T11:56:14.561Z,41.00
2017-04-25T11:57:12.009Z,41.10
2017-04-25T11:58:12.115Z,41.20
2017-04-25T11:59:12.298Z,41.10
2017-04-25T12:00:12.374Z,41.20
2017-04-25T12:01:12.579Z,41.20
2017-04-25T12:02:11.631Z,41.10
2017-04-25T12:03:12.240Z,41.30
2017-04-25T12:04:12.861Z,41.20
2017-04-25T12:05:12.635Z,41.00
2017-04-25T12:06:12.114Z,41.10
2017-04-25T12:07:12.962Z,41.20
2017-04-25T12:08:12.453Z,41.10
2017-04-25T12:09:12.231Z,41.20
2017-04-25T12:10:12.470Z,41.20
2017-04-25T12:11:13.551Z,41.30
2017-04-25T12:12:11.532Z,41.10
2017-04-25T12:13:13.361Z,41.30
2017-04-25T12:14:13.120Z,41.20
2017-04-25T12:15:13.882Z,41.20
2017-04-25T12:16:11.753Z,41.10
2017-04-25T12:17:12.694Z,41.20
2017-04-25T12:18:11.798Z,41.10
2017-04-25T12:19:11.932Z,41.10
2017-04-25T12:20:12.777Z,41.20
2017-04-25T12:21:11.811Z,41.30
2017-04-25T12:22:12.478Z,41.20
2017-04-25T12:23:12.076Z,41.30
2017-04-25T12:24:12.634Z,41.10
2017-04-25T12:25:12.643Z,41.30
2017-04-25T12:26:10.005Z,is
2017-04-25T12:27:12.439Z,41.20
2017-04-25T12:28:12.728Z,41.20
2017-04-25T12:29:11.798Z,41.10
2017-04-25T12:30:14.776Z,41.20
2017-04-25T12:31:11.924Z,41.10
2017-04-25T12:32:14.504Z,41.20
2017-04-25T12:33:12.839Z,41.10
2017-04-25T12:34:14.153Z,41.10
2017-04-25T12:35:14.288Z,41.10
2017-04-25T12:36:15.509Z,41.20
2017-04-25T12:37:13.825Z,41.10
2017-04-25T12:38:14.421Z,41.20
2017-04-25T12:39:10.012Z,is
2017-04-25T12:40:15.138Z,41.20
2017-04-25T12:41:14.417Z,41.10
2017-04-25T12:42:14.192Z,41.20
2017-04-25T12:43:12.921Z,41.10
2017-04-25T12:44:12.898Z,41.10
2017-04-25T12:45:12.073Z,41.00
2017-04-25T12:46:13.721Z,41.20
2017-04-25T12:47:12.866Z,41.20
2017-04-25T12:48:13.593Z,41.00
2017-04-25T12:49:12.036Z,41.10
2017-04-25T12:50:13.228Z,41.00
2017-04-25T12:51:13.705Z,41.10
2017-04-25T12:52:14.897Z,41.10
2017-04-25T12:53:15.154Z,41.20
2017-04-25T12:54:13.742Z,41.10
2017-04-25T12:55:14.993Z,40.70
2017-04-25T12:56:12.263Z,41.20
2017-04-25T12:57:13.969Z,41.10
2017-04-25T12:58:12.645Z,41.10